Dixboro, Michigan
Current Conditions -  °F | °C
As of 9:53 AM on Tuesday 21 Oct 2014 (Local Time) from KARB Reporting Station
Overcast Overcast  
Wind Chill: 42°   Ceiling: 1300
Heat Index: 48°   Visibility: 10mi
Dew Point: 42°   Wind: 14mph
Humidity: 80%   Direction: 360°N
Pressure: 30.01"   Gusts: 21mph
Location:  42.3281°N, 83.7037°W
Report Text: KARB 211353Z 36012G18KT 10SM BKN013 OVC029 09/06 A3001 RMK AO2 SLP163 T00890056
Loading
Personal Weather Stations






























Interactive Weather Map
Tropical Storm Tracking
New forecast layout! Learn more

10-Day Weather Forecast

Advertisements
Track Severe Weather on mobile